sensor_id;sensor_type;location;lat;lon;timestamp;temperature;humidity
11838;DHT22;5978;51.020;6.764;2022-09-27T00:00:22;11.00;99.90
11838;DHT22;5978;51.020;6.764;2022-09-27T00:02:48;11.00;99.90
11838;DHT22;5978;51.020;6.764;2022-09-27T00:05:14;10.90;99.90
11838;DHT22;5978;51.020;6.764;2022-09-27T00:07:40;11.00;99.90
11838;DHT22;5978;51.020;6.764;2022-09-27T00:10:06;10.90;99.90
11838;DHT22;5978;51.020;6.764;2022-09-27T00:12:33;10.80;99.90
11838;DHT22;5978;51.020;6.764;2022-09-27T00:14:59;10.80;99.90
11838;DHT22;5978;51.020;6.764;2022-09-27T00:17:25;10.90;99.90
11838;DHT22;5978;51.020;6.764;2022-09-27T00:19:51;10.80;99.90
11838;DHT22;5978;51.020;6.764;2022-09-27T00:22:17;10.80;99.90
11838;DHT22;5978;51.020;6.764;2022-09-27T00:24:43;10.80;99.90
11838;DHT22;5978;51.020;6.764;2022-09-27T00:27:08;10.80;99.90
11838;DHT22;5978;51.020;6.764;2022-09-27T00:29:34;10.90;99.90
11838;DHT22;5978;51.020;6.764;2022-09-27T00:32:00;10.90;99.90
11838;DHT22;5978;51.020;6.764;2022-09-27T00:34:25;10.90;99.90
11838;DHT22;5978;51.020;6.764;2022-09-27T00:36:52;10.90;99.90
11838;DHT22;5978;51.020;6.764;2022-09-27T00:39:18;10.90;99.90
11838;DHT22;5978;51.020;6.764;2022-09-27T00:41:44;10.80;99.90
11838;DHT22;5978;51.020;6.764;2022-09-27T00:52:25;10.70;99.90
11838;DHT22;5978;51.020;6.764;2022-09-27T00:54:56;10.70;99.90
11838;DHT22;5978;51.020;6.764;2022-09-27T00:57:23;10.70;99.90
11838;DHT22;5978;51.020;6.764;2022-09-27T01:00:14;10.70;99.90
11838;DHT22;5978;51.020;6.764;2022-09-27T01:02:43;10.60;99.90
11838;DHT22;5978;51.020;6.764;2022-09-27T01:05:11;10.70;99.90
11838;DHT22;5978;51.020;6.764;2022-09-27T01:07:38;10.60;99.90
11838;DHT22;5978;51.020;6.764;2022-09-27T01:10:05;10.60;99.90
11838;DHT22;5978;51.020;6.764;2022-09-27T01:15:28;10.60;99.90
11838;DHT22;5978;51.020;6.764;2022-09-27T01:18:33;10.60;99.90
11838;DHT22;5978;51.020;6.764;2022-09-27T01:21:29;10.60;99.90
11838;DHT22;5978;51.020;6.764;2022-09-27T01:29:18;10.50;99.90
11838;DHT22;5978;51.020;6.764;2022-09-27T01:32:15;10.60;99.90
11838;DHT22;5978;51.020;6.764;2022-09-27T01:34:49;10.50;99.90
11838;DHT22;5978;51.020;6.764;2022-09-27T01:37:34;10.60;99.90
11838;DHT22;5978;51.020;6.764;2022-09-27T01:40:09;10.70;99.90
11838;DHT22;5978;51.020;6.764;2022-09-27T01:42:54;10.70;99.90
11838;DHT22;5978;51.020;6.764;2022-09-27T01:45:47;10.70;99.90
11838;DHT22;5978;51.020;6.764;2022-09-27T01:48:30;10.60;99.90
11838;DHT22;5978;51.020;6.764;2022-09-27T01:51:16;10.60;99.90
11838;DHT22;5978;51.020;6.764;2022-09-27T01:53:46;10.60;99.90
11838;DHT22;5978;51.020;6.764;2022-09-27T01:56:17;10.60;99.90
11838;DHT22;5978;51.020;6.764;2022-09-27T01:58:52;10.50;99.90
11838;DHT22;5978;51.020;6.764;2022-09-27T02:01:21;10.50;99.90
11838;DHT22;5978;51.020;6.764;2022-09-27T02:03:49;10.50;99.90
11838;DHT22;5978;51.020;6.764;2022-09-27T02:06:22;10.50;99.90
11838;DHT22;5978;51.020;6.764;2022-09-27T02:08:59;10.40;99.90
11838;DHT22;5978;51.020;6.764;2022-09-27T02:11:26;10.40;99.90
11838;DHT22;5978;51.020;6.764;2022-09-27T02:14:12;10.40;99.90
11838;DHT22;5978;51.020;6.764;2022-09-27T02:22:25;10.40;99.90
11838;DHT22;5978;51.020;6.764;2022-09-27T02:30:12;10.40;99.90
11838;DHT22;5978;51.020;6.764;2022-09-27T02:32:38;10.40;99.90
11838;DHT22;5978;51.020;6.764;2022-09-27T02:37:37;10.40;99.90
11838;DHT22;5978;51.020;6.764;2022-09-27T02:40:03;10.40;99.90
11838;DHT22;5978;51.020;6.764;2022-09-27T02:42:30;10.40;99.90
11838;DHT22;5978;51.020;6.764;2022-09-27T02:44:56;10.40;99.90
11838;DHT22;5978;51.020;6.764;2022-09-27T02:56:05;10.40;99.90
11838;DHT22;5978;51.020;6.764;2022-09-27T02:58:50;10.40;99.90
11838;DHT22;5978;51.020;6.764;2022-09-27T03:01:40;10.50;99.90
11838;DHT22;5978;51.020;6.764;2022-09-27T03:04:16;10.50;99.90
11838;DHT22;5978;51.020;6.764;2022-09-27T03:06:48;10.50;99.90
11838;DHT22;5978;51.020;6.764;2022-09-27T03:09:24;10.40;99.90
11838;DHT22;5978;51.020;6.764;2022-09-27T03:11:53;10.40;99.90
11838;DHT22;5978;51.020;6.764;2022-09-27T03:14:19;10.40;99.90
11838;DHT22;5978;51.020;6.764;2022-09-27T03:16:45;10.20;99.90
11838;DHT22;5978;51.020;6.764;2022-09-27T03:19:10;10.20;99.90
11838;DHT22;5978;51.020;6.764;2022-09-27T03:21:36;10.20;99.90
11838;DHT22;5978;51.020;6.764;2022-09-27T03:24:02;10.20;99.90
11838;DHT22;5978;51.020;6.764;2022-09-27T03:26:28;10.10;99.90
11838;DHT22;5978;51.020;6.764;2022-09-27T03:28:54;10.10;99.90
11838;DHT22;5978;51.020;6.764;2022-09-27T03:31:22;10.00;99.90
11838;DHT22;5978;51.020;6.764;2022-09-27T03:33:48;10.00;99.90
11838;DHT22;5978;51.020;6.764;2022-09-27T03:36:13;9.90;99.90
11838;DHT22;5978;51.020;6.764;2022-09-27T03:38:39;9.90;99.90
11838;DHT22;5978;51.020;6.764;2022-09-27T03:41:04;9.90;99.90
11838;DHT22;5978;51.020;6.764;2022-09-27T03:43:30;9.80;99.90
11838;DHT22;5978;51.020;6.764;2022-09-27T03:45:56;9.80;99.90
11838;DHT22;5978;51.020;6.764;2022-09-27T03:48:21;9.80;99.90
11838;DHT22;5978;51.020;6.764;2022-09-27T03:50:49;9.70;99.90
11838;DHT22;5978;51.020;6.764;2022-09-27T03:53:15;9.70;99.90
11838;DHT22;5978;51.020;6.764;2022-09-27T03:55:43;9.70;99.90
11838;DHT22;5978;51.020;6.764;2022-09-27T03:58:09;9.80;99.90
11838;DHT22;5978;51.020;6.764;2022-09-27T04:00:35;9.70;99.90
11838;DHT22;5978;51.020;6.764;2022-09-27T04:03:01;9.60;99.90
11838;DHT22;5978;51.020;6.764;2022-09-27T04:05:28;9.50;99.90
11838;DHT22;5978;51.020;6.764;2022-09-27T04:07:53;9.50;99.90
11838;DHT22;5978;51.020;6.764;2022-09-27T04:10:19;9.50;99.90
11838;DHT22;5978;51.020;6.764;2022-09-27T04:12:45;9.50;99.90
11838;DHT22;5978;51.020;6.764;2022-09-27T04:15:11;9.40;99.90
11838;DHT22;5978;51.020;6.764;2022-09-27T04:17:39;9.40;99.90
11838;DHT22;5978;51.020;6.764;2022-09-27T04:20:05;9.40;99.90
11838;DHT22;5978;51.020;6.764;2022-09-27T04:22:31;9.40;99.90
11838;DHT22;5978;51.020;6.764;2022-09-27T04:24:57;9.30;99.90
11838;DHT22;5978;51.020;6.764;2022-09-27T04:27:22;9.30;99.90
11838;DHT22;5978;51.020;6.764;2022-09-27T04:29:48;9.30;99.90
11838;DHT22;5978;51.020;6.764;2022-09-27T04:32:14;9.30;99.90
11838;DHT22;5978;51.020;6.764;2022-09-27T04:34:39;9.30;99.90
11838;DHT22;5978;51.020;6.764;2022-09-27T04:37:24;9.30;99.90
11838;DHT22;5978;51.020;6.764;2022-09-27T04:39:51;9.30;99.90
11838;DHT22;5978;51.020;6.764;2022-09-27T04:42:17;9.30;99.90
11838;DHT22;5978;51.020;6.764;2022-09-27T04:44:49;9.30;99.90
11838;DHT22;5978;51.020;6.764;2022-09-27T04:47:23;9.30;99.90
11838;DHT22;5978;51.020;6.764;2022-09-27T04:50:14;9.30;99.90
11838;DHT22;5978;51.020;6.764;2022-09-27T04:52:43;9.30;99.90
11838;DHT22;5978;51.020;6.764;2022-09-27T04:55:09;9.20;99.90
11838;DHT22;5978;51.020;6.764;2022-09-27T04:57:35;9.20;99.90
11838;DHT22;5978;51.020;6.764;2022-09-27T05:00:03;9.20;99.90
11838;DHT22;5978;51.020;6.764;2022-09-27T05:02:29;9.20;99.90
11838;DHT22;5978;51.020;6.764;2022-09-27T05:04:55;9.20;99.90
11838;DHT22;5978;51.020;6.764;2022-09-27T05:07:27;9.20;99.90
11838;DHT22;5978;51.020;6.764;2022-09-27T05:09:53;9.20;99.90
11838;DHT22;5978;51.020;6.764;2022-09-27T05:12:20;9.20;99.90
11838;DHT22;5978;51.020;6.764;2022-09-27T05:14:46;9.30;99.90
11838;DHT22;5978;51.020;6.764;2022-09-27T05:17:12;9.30;99.90
11838;DHT22;5978;51.020;6.764;2022-09-27T05:19:38;9.20;99.90
11838;DHT22;5978;51.020;6.764;2022-09-27T05:22:05;9.20;99.90
11838;DHT22;5978;51.020;6.764;2022-09-27T05:24:31;9.30;99.90
11838;DHT22;5978;51.020;6.764;2022-09-27T05:27:00;9.20;99.90
11838;DHT22;5978;51.020;6.764;2022-09-27T05:29:26;9.20;99.90
11838;DHT22;5978;51.020;6.764;2022-09-27T05:31:52;9.20;99.90
11838;DHT22;5978;51.020;6.764;2022-09-27T05:34:18;9.20;99.90
11838;DHT22;5978;51.020;6.764;2022-09-27T05:36:47;9.10;99.90
11838;DHT22;5978;51.020;6.764;2022-09-27T05:39:13;9.10;99.90
11838;DHT22;5978;51.020;6.764;2022-09-27T05:42:15;9.20;99.90
11838;DHT22;5978;51.020;6.764;2022-09-27T05:44:42;9.20;99.90
11838;DHT22;5978;51.020;6.764;2022-09-27T05:47:11;9.30;99.90
11838;DHT22;5978;51.020;6.764;2022-09-27T05:49:37;9.30;99.90
11838;DHT22;5978;51.020;6.764;2022-09-27T05:52:04;9.30;99.90
11838;DHT22;5978;51.020;6.764;2022-09-27T05:54:30;9.40;99.90
11838;DHT22;5978;51.020;6.764;2022-09-27T05:56:57;9.50;99.90
11838;DHT22;5978;51.020;6.764;2022-09-27T05:59:27;9.50;99.90
11838;DHT22;5978;51.020;6.764;2022-09-27T06:01:53;9.50;99.90
11838;DHT22;5978;51.020;6.764;2022-09-27T06:04:20;9.50;99.90
11838;DHT22;5978;51.020;6.764;2022-09-27T06:06:47;9.50;99.90
11838;DHT22;5978;51.020;6.764;2022-09-27T06:09:14;9.50;99.90
11838;DHT22;5978;51.020;6.764;2022-09-27T06:11:41;9.60;99.90
11838;DHT22;5978;51.020;6.764;2022-09-27T06:14:10;9.60;99.90
11838;DHT22;5978;51.020;6.764;2022-09-27T06:16:35;9.60;99.90
11838;DHT22;5978;51.020;6.764;2022-09-27T06:19:01;9.60;99.90
11838;DHT22;5978;51.020;6.764;2022-09-27T06:21:28;9.70;99.90
11838;DHT22;5978;51.020;6.764;2022-09-27T06:24:13;9.70;99.90
11838;DHT22;5978;51.020;6.764;2022-09-27T06:26:39;9.70;99.90
11838;DHT22;5978;51.020;6.764;2022-09-27T06:29:04;9.70;99.90
11838;DHT22;5978;51.020;6.764;2022-09-27T06:31:30;9.70;99.90
11838;DHT22;5978;51.020;6.764;2022-09-27T06:33:56;9.70;99.90
11838;DHT22;5978;51.020;6.764;2022-09-27T06:36:22;9.70;99.90
11838;DHT22;5978;51.020;6.764;2022-09-27T06:38:47;9.80;99.90
11838;DHT22;5978;51.020;6.764;2022-09-27T06:41:14;9.80;99.90
11838;DHT22;5978;51.020;6.764;2022-09-27T06:43:41;9.90;99.90
11838;DHT22;5978;51.020;6.764;2022-09-27T06:46:06;9.90;99.90
11838;DHT22;5978;51.020;6.764;2022-09-27T06:48:32;9.90;99.90
11838;DHT22;5978;51.020;6.764;2022-09-27T06:50:59;10.00;99.90
11838;DHT22;5978;51.020;6.764;2022-09-27T06:53:24;10.00;99.90
11838;DHT22;5978;51.020;6.764;2022-09-27T06:55:50;10.00;99.90
11838;DHT22;5978;51.020;6.764;2022-09-27T06:58:17;10.00;99.90
11838;DHT22;5978;51.020;6.764;2022-09-27T07:01:01;10.00;99.90
11838;DHT22;5978;51.020;6.764;2022-09-27T07:03:27;10.00;99.90
11838;DHT22;5978;51.020;6.764;2022-09-27T07:06:04;10.00;99.90
11838;DHT22;5978;51.020;6.764;2022-09-27T07:08:31;10.10;99.90
11838;DHT22;5978;51.020;6.764;2022-09-27T07:11:04;10.00;99.90
11838;DHT22;5978;51.020;6.764;2022-09-27T07:16:41;9.90;99.90
11838;DHT22;5978;51.020;6.764;2022-09-27T07:19:07;9.90;99.90
11838;DHT22;5978;51.020;6.764;2022-09-27T07:21:36;10.00;99.90
11838;DHT22;5978;51.020;6.764;2022-09-27T07:24:02;9.90;99.90
11838;DHT22;5978;51.020;6.764;2022-09-27T07:26:27;10.10;99.90
11838;DHT22;5978;51.020;6.764;2022-09-27T07:28:53;9.90;99.90
11838;DHT22;5978;51.020;6.764;2022-09-27T07:31:19;9.90;99.90
11838;DHT22;5978;51.020;6.764;2022-09-27T07:33:45;10.00;99.90
11838;DHT22;5978;51.020;6.764;2022-09-27T07:36:11;10.10;99.90
11838;DHT22;5978;51.020;6.764;2022-09-27T07:38:37;10.10;99.90
11838;DHT22;5978;51.020;6.764;2022-09-27T07:41:11;10.10;99.90
11838;DHT22;5978;51.020;6.764;2022-09-27T07:43:41;10.10;99.90
11838;DHT22;5978;51.020;6.764;2022-09-27T07:46:09;10.10;99.90
11838;DHT22;5978;51.020;6.764;2022-09-27T07:48:35;10.10;99.90
11838;DHT22;5978;51.020;6.764;2022-09-27T07:51:01;10.10;99.90
11838;DHT22;5978;51.020;6.764;2022-09-27T07:53:26;10.10;99.90
11838;DHT22;5978;51.020;6.764;2022-09-27T07:55:53;10.10;99.90
11838;DHT22;5978;51.020;6.764;2022-09-27T07:58:19;10.20;99.90
11838;DHT22;5978;51.020;6.764;2022-09-27T08:00:45;10.20;99.90
11838;DHT22;5978;51.020;6.764;2022-09-27T08:03:13;10.20;99.90
11838;DHT22;5978;51.020;6.764;2022-09-27T08:05:46;10.30;99.90
11838;DHT22;5978;51.020;6.764;2022-09-27T08:08:13;10.40;99.90
11838;DHT22;5978;51.020;6.764;2022-09-27T08:10:39;10.60;99.90
11838;DHT22;5978;51.020;6.764;2022-09-27T08:13:09;10.70;99.90
11838;DHT22;5978;51.020;6.764;2022-09-27T08:15:35;10.80;99.90
11838;DHT22;5978;51.020;6.764;2022-09-27T08:18:03;11.00;99.90
11838;DHT22;5978;51.020;6.764;2022-09-27T08:20:29;11.10;99.90
11838;DHT22;5978;51.020;6.764;2022-09-27T08:22:54;11.30;99.90
11838;DHT22;5978;51.020;6.764;2022-09-27T08:25:21;11.40;99.90
11838;DHT22;5978;51.020;6.764;2022-09-27T08:27:59;11.40;99.90
11838;DHT22;5978;51.020;6.764;2022-09-27T08:30:25;11.50;99.90
11838;DHT22;5978;51.020;6.764;2022-09-27T08:32:55;11.50;99.90
11838;DHT22;5978;51.020;6.764;2022-09-27T08:35:21;11.50;99.90
11838;DHT22;5978;51.020;6.764;2022-09-27T08:37:57;11.60;99.90
11838;DHT22;5978;51.020;6.764;2022-09-27T08:48:48;11.90;99.90
11838;DHT22;5978;51.020;6.764;2022-09-27T08:51:21;12.00;99.90
11838;DHT22;5978;51.020;6.764;2022-09-27T08:54:00;12.00;99.90
11838;DHT22;5978;51.020;6.764;2022-09-27T08:56:30;12.10;99.90
11838;DHT22;5978;51.020;6.764;2022-09-27T09:01:37;12.10;99.90
11838;DHT22;5978;51.020;6.764;2022-09-27T09:04:04;12.20;99.90
11838;DHT22;5978;51.020;6.764;2022-09-27T09:09:29;12.20;99.90
11838;DHT22;5978;51.020;6.764;2022-09-27T09:12:21;12.30;99.90
11838;DHT22;5978;51.020;6.764;2022-09-27T09:21:09;12.70;99.90
11838;DHT22;5978;51.020;6.764;2022-09-27T09:31:50;12.70;99.90
11838;DHT22;5978;51.020;6.764;2022-09-27T09:35:27;12.60;99.90
11838;DHT22;5978;51.020;6.764;2022-09-27T09:37:40;12.50;99.90
11838;DHT22;5978;51.020;6.764;2022-09-27T09:43:03;12.60;99.90
11838;DHT22;5978;51.020;6.764;2022-09-27T09:45:37;12.70;99.90
11838;DHT22;5978;51.020;6.764;2022-09-27T09:48:27;12.70;99.90
11838;DHT22;5978;51.020;6.764;2022-09-27T09:50:58;12.70;99.90
11838;DHT22;5978;51.020;6.764;2022-09-27T09:56:12;12.50;99.90
11838;DHT22;5978;51.020;6.764;2022-09-27T09:58:48;12.70;99.90
11838;DHT22;5978;51.020;6.764;2022-09-27T10:03:58;12.60;99.90
11838;DHT22;5978;51.020;6.764;2022-09-27T10:06:25;12.70;99.90
11838;DHT22;5978;51.020;6.764;2022-09-27T10:08:53;12.90;99.90
11838;DHT22;5978;51.020;6.764;2022-09-27T10:11:35;12.80;99.90
11838;DHT22;5978;51.020;6.764;2022-09-27T10:14:01;13.00;99.90
11838;DHT22;5978;51.020;6.764;2022-09-27T10:16:27;13.00;99.90
11838;DHT22;5978;51.020;6.764;2022-09-27T10:18:56;13.00;99.90
11838;DHT22;5978;51.020;6.764;2022-09-27T10:21:28;12.90;99.90
11838;DHT22;5978;51.020;6.764;2022-09-27T10:24:06;12.90;99.90
11838;DHT22;5978;51.020;6.764;2022-09-27T10:26:36;12.90;99.90
11838;DHT22;5978;51.020;6.764;2022-09-27T10:29:22;12.90;99.90
11838;DHT22;5978;51.020;6.764;2022-09-27T10:31:48;12.60;99.90
11838;DHT22;5978;51.020;6.764;2022-09-27T10:37:05;12.40;99.90
11838;DHT22;5978;51.020;6.764;2022-09-27T10:39:32;12.30;99.90
11838;DHT22;5978;51.020;6.764;2022-09-27T10:41:58;12.20;99.90
11838;DHT22;5978;51.020;6.764;2022-09-27T10:44:30;12.20;99.90
11838;DHT22;5978;51.020;6.764;2022-09-27T10:47:20;12.20;99.90
11838;DHT22;5978;51.020;6.764;2022-09-27T10:49:48;12.00;99.90
11838;DHT22;5978;51.020;6.764;2022-09-27T10:52:21;12.00;99.90
11838;DHT22;5978;51.020;6.764;2022-09-27T10:54:56;12.00;99.90
11838;DHT22;5978;51.020;6.764;2022-09-27T10:57:25;11.90;99.90
11838;DHT22;5978;51.020;6.764;2022-09-27T11:00:07;11.90;99.90
11838;DHT22;5978;51.020;6.764;2022-09-27T11:02:41;11.70;99.90
11838;DHT22;5978;51.020;6.764;2022-09-27T11:05:28;11.40;99.90
11838;DHT22;5978;51.020;6.764;2022-09-27T11:07:57;11.40;99.90
11838;DHT22;5978;51.020;6.764;2022-09-27T11:13:16;11.40;99.90
11838;DHT22;5978;51.020;6.764;2022-09-27T11:18:56;11.80;99.90
11838;DHT22;5978;51.020;6.764;2022-09-27T11:25:01;12.40;99.90
11838;DHT22;5978;51.020;6.764;2022-09-27T11:40:43;12.00;99.90
11838;DHT22;5978;51.020;6.764;2022-09-27T11:46:26;11.80;99.90
11838;DHT22;5978;51.020;6.764;2022-09-27T11:51:45;11.60;99.90
11838;DHT22;5978;51.020;6.764;2022-09-27T11:54:39;11.50;99.90
11838;DHT22;5978;51.020;6.764;2022-09-27T11:57:11;11.70;99.90
11838;DHT22;5978;51.020;6.764;2022-09-27T12:05:41;12.80;99.90
11838;DHT22;5978;51.020;6.764;2022-09-27T12:08:18;13.70;99.90
11838;DHT22;5978;51.020;6.764;2022-09-27T12:10:49;14.20;99.90
11838;DHT22;5978;51.020;6.764;2022-09-27T12:13:24;14.60;99.90
11838;DHT22;5978;51.020;6.764;2022-09-27T12:15:50;14.50;99.90
11838;DHT22;5978;51.020;6.764;2022-09-27T12:18:28;14.30;99.90
11838;DHT22;5978;51.020;6.764;2022-09-27T12:20:59;14.00;99.90
11838;DHT22;5978;51.020;6.764;2022-09-27T12:23:51;13.80;99.90
11838;DHT22;5978;51.020;6.764;2022-09-27T12:26:36;13.60;99.90
11838;DHT22;5978;51.020;6.764;2022-09-27T12:29:16;13.50;99.90
11838;DHT22;5978;51.020;6.764;2022-09-27T12:32:01;13.40;99.90
11838;DHT22;5978;51.020;6.764;2022-09-27T12:37:22;13.40;99.90
11838;DHT22;5978;51.020;6.764;2022-09-27T12:40:02;13.10;99.90
11838;DHT22;5978;51.020;6.764;2022-09-27T12:42:37;12.50;99.90
11838;DHT22;5978;51.020;6.764;2022-09-27T12:45:04;12.30;99.90
11838;DHT22;5978;51.020;6.764;2022-09-27T12:48:07;12.20;99.90
11838;DHT22;5978;51.020;6.764;2022-09-27T12:50:42;12.00;99.90
11838;DHT22;5978;51.020;6.764;2022-09-27T12:53:27;12.10;99.90
11838;DHT22;5978;51.020;6.764;2022-09-27T12:59:24;12.20;99.90
11838;DHT22;5978;51.020;6.764;2022-09-27T13:12:37;12.60;99.90
11838;DHT22;5978;51.020;6.764;2022-09-27T13:15:27;12.50;99.90
11838;DHT22;5978;51.020;6.764;2022-09-27T13:17:55;12.70;99.90
11838;DHT22;5978;51.020;6.764;2022-09-27T13:23:04;13.40;99.90
11838;DHT22;5978;51.020;6.764;2022-09-27T13:31:05;13.20;99.90
11838;DHT22;5978;51.020;6.764;2022-09-27T13:41:22;13.10;99.90
11838;DHT22;5978;51.020;6.764;2022-09-27T13:47:02;13.10;99.90
11838;DHT22;5978;51.020;6.764;2022-09-27T13:49:35;13.10;99.90
11838;DHT22;5978;51.020;6.764;2022-09-27T13:52:22;12.90;99.90
11838;DHT22;5978;51.020;6.764;2022-09-27T13:54:55;13.00;99.90
11838;DHT22;5978;51.020;6.764;2022-09-27T14:00:15;13.00;99.90
11838;DHT22;5978;51.020;6.764;2022-09-27T14:02:58;13.10;99.90
11838;DHT22;5978;51.020;6.764;2022-09-27T14:05:36;13.10;99.90
11838;DHT22;5978;51.020;6.764;2022-09-27T14:08:03;13.20;99.90
11838;DHT22;5978;51.020;6.764;2022-09-27T14:10:31;13.30;99.90
11838;DHT22;5978;51.020;6.764;2022-09-27T14:12:59;13.30;99.90
11838;DHT22;5978;51.020;6.764;2022-09-27T14:15:27;13.00;99.90
11838;DHT22;5978;51.020;6.764;2022-09-27T14:17:54;12.80;99.90
11838;DHT22;5978;51.020;6.764;2022-09-27T14:23:00;13.20;99.90
11838;DHT22;5978;51.020;6.764;2022-09-27T14:25:27;13.40;99.90
11838;DHT22;5978;51.020;6.764;2022-09-27T14:27:53;13.50;99.90
11838;DHT22;5978;51.020;6.764;2022-09-27T14:30:21;13.70;99.90
11838;DHT22;5978;51.020;6.764;2022-09-27T14:32:52;13.80;99.90
11838;DHT22;5978;51.020;6.764;2022-09-27T14:35:20;13.90;99.90
11838;DHT22;5978;51.020;6.764;2022-09-27T14:38:09;13.60;99.90
11838;DHT22;5978;51.020;6.764;2022-09-27T14:40:58;14.40;99.90
11838;DHT22;5978;51.020;6.764;2022-09-27T14:43:24;15.20;99.90
11838;DHT22;5978;51.020;6.764;2022-09-27T14:45:55;15.80;99.90
11838;DHT22;5978;51.020;6.764;2022-09-27T14:48:33;16.00;99.90
11838;DHT22;5978;51.020;6.764;2022-09-27T14:53:45;15.10;99.90
11838;DHT22;5978;51.020;6.764;2022-09-27T14:56:16;14.80;99.90
11838;DHT22;5978;51.020;6.764;2022-09-27T14:58:44;14.40;99.90
11838;DHT22;5978;51.020;6.764;2022-09-27T15:01:18;14.30;99.90
11838;DHT22;5978;51.020;6.764;2022-09-27T15:03:46;14.00;99.90
11838;DHT22;5978;51.020;6.764;2022-09-27T15:06:15;13.90;99.90
11838;DHT22;5978;51.020;6.764;2022-09-27T15:08:41;13.60;99.90
11838;DHT22;5978;51.020;6.764;2022-09-27T15:11:09;13.50;99.90
11838;DHT22;5978;51.020;6.764;2022-09-27T15:13:36;13.20;99.90
11838;DHT22;5978;51.020;6.764;2022-09-27T15:16:07;13.10;99.90
11838;DHT22;5978;51.020;6.764;2022-09-27T15:18:39;13.00;99.90
11838;DHT22;5978;51.020;6.764;2022-09-27T15:21:07;12.80;99.90
11838;DHT22;5978;51.020;6.764;2022-09-27T15:23:41;12.60;99.90
11838;DHT22;5978;51.020;6.764;2022-09-27T15:26:14;12.30;99.90
11838;DHT22;5978;51.020;6.764;2022-09-27T15:28:51;12.30;99.90
11838;DHT22;5978;51.020;6.764;2022-09-27T15:31:28;12.30;99.90
11838;DHT22;5978;51.020;6.764;2022-09-27T15:33:55;12.20;99.90
11838;DHT22;5978;51.020;6.764;2022-09-27T15:39:17;12.40;99.90
11838;DHT22;5978;51.020;6.764;2022-09-27T15:42:04;12.60;99.90
11838;DHT22;5978;51.020;6.764;2022-09-27T15:44:42;12.80;99.90
11838;DHT22;5978;51.020;6.764;2022-09-27T15:52:53;12.60;99.90
11838;DHT22;5978;51.020;6.764;2022-09-27T15:55:24;12.60;99.90
11838;DHT22;5978;51.020;6.764;2022-09-27T15:57:58;12.60;99.90
11838;DHT22;5978;51.020;6.764;2022-09-27T16:00:28;12.40;99.90
11838;DHT22;5978;51.020;6.764;2022-09-27T16:02:54;12.20;99.90
11838;DHT22;5978;51.020;6.764;2022-09-27T16:05:21;12.10;99.90
11838;DHT22;5978;51.020;6.764;2022-09-27T16:07:51;12.10;99.90
11838;DHT22;5978;51.020;6.764;2022-09-27T16:10:18;11.90;99.90
11838;DHT22;5978;51.020;6.764;2022-09-27T16:12:44;11.80;99.90
11838;DHT22;5978;51.020;6.764;2022-09-27T16:15:11;11.80;99.90
11838;DHT22;5978;51.020;6.764;2022-09-27T16:17:37;11.80;99.90
11838;DHT22;5978;51.020;6.764;2022-09-27T16:20:05;11.70;99.90
11838;DHT22;5978;51.020;6.764;2022-09-27T16:22:30;11.60;99.90
11838;DHT22;5978;51.020;6.764;2022-09-27T16:24:56;11.60;99.90
11838;DHT22;5978;51.020;6.764;2022-09-27T16:27:25;11.60;99.90
11838;DHT22;5978;51.020;6.764;2022-09-27T16:29:54;11.50;99.90
11838;DHT22;5978;51.020;6.764;2022-09-27T16:32:22;11.50;99.90
11838;DHT22;5978;51.020;6.764;2022-09-27T16:34:48;11.50;99.90
11838;DHT22;5978;51.020;6.764;2022-09-27T16:37:14;11.40;99.90
11838;DHT22;5978;51.020;6.764;2022-09-27T16:39:39;11.40;99.90
11838;DHT22;5978;51.020;6.764;2022-09-27T16:42:05;11.40;99.90
11838;DHT22;5978;51.020;6.764;2022-09-27T16:44:32;11.50;99.90
11838;DHT22;5978;51.020;6.764;2022-09-27T16:47:04;11.50;99.90
11838;DHT22;5978;51.020;6.764;2022-09-27T16:49:30;11.50;99.90
11838;DHT22;5978;51.020;6.764;2022-09-27T16:52:15;11.50;99.90
11838;DHT22;5978;51.020;6.764;2022-09-27T16:54:41;11.50;99.90
11838;DHT22;5978;51.020;6.764;2022-09-27T16:57:07;11.50;99.90
11838;DHT22;5978;51.020;6.764;2022-09-27T16:59:34;11.40;99.90
11838;DHT22;5978;51.020;6.764;2022-09-27T17:01:59;11.30;99.90
11838;DHT22;5978;51.020;6.764;2022-09-27T17:04:26;11.20;99.90
11838;DHT22;5978;51.020;6.764;2022-09-27T17:06:53;11.20;99.90
11838;DHT22;5978;51.020;6.764;2022-09-27T17:09:20;11.20;99.90
11838;DHT22;5978;51.020;6.764;2022-09-27T17:11:46;11.20;99.90
11838;DHT22;5978;51.020;6.764;2022-09-27T17:14:12;11.10;99.90
11838;DHT22;5978;51.020;6.764;2022-09-27T17:16:42;11.10;99.90
11838;DHT22;5978;51.020;6.764;2022-09-27T17:19:08;11.10;99.90
11838;DHT22;5978;51.020;6.764;2022-09-27T17:21:35;11.10;99.90
11838;DHT22;5978;51.020;6.764;2022-09-27T17:24:01;11.10;99.90
11838;DHT22;5978;51.020;6.764;2022-09-27T17:26:27;11.00;99.90
11838;DHT22;5978;51.020;6.764;2022-09-27T17:28:55;11.00;99.90
11838;DHT22;5978;51.020;6.764;2022-09-27T17:31:21;11.00;99.90
11838;DHT22;5978;51.020;6.764;2022-09-27T17:33:48;11.00;99.90
11838;DHT22;5978;51.020;6.764;2022-09-27T17:36:20;10.90;99.90
11838;DHT22;5978;51.020;6.764;2022-09-27T17:38:47;10.90;99.90
11838;DHT22;5978;51.020;6.764;2022-09-27T17:41:16;10.90;99.90
11838;DHT22;5978;51.020;6.764;2022-09-27T17:43:43;10.80;99.90
11838;DHT22;5978;51.020;6.764;2022-09-27T17:46:19;10.70;99.90
11838;DHT22;5978;51.020;6.764;2022-09-27T17:48:45;10.80;99.90
11838;DHT22;5978;51.020;6.764;2022-09-27T17:51:30;10.80;99.90
11838;DHT22;5978;51.020;6.764;2022-09-27T17:53:56;10.70;99.90
11838;DHT22;5978;51.020;6.764;2022-09-27T17:56:22;10.70;99.90
11838;DHT22;5978;51.020;6.764;2022-09-27T17:58:49;10.60;99.90
11838;DHT22;5978;51.020;6.764;2022-09-27T18:01:16;10.50;99.90
11838;DHT22;5978;51.020;6.764;2022-09-27T18:03:43;10.50;99.90
11838;DHT22;5978;51.020;6.764;2022-09-27T18:06:10;10.50;99.90
11838;DHT22;5978;51.020;6.764;2022-09-27T18:08:38;10.50;99.90
11838;DHT22;5978;51.020;6.764;2022-09-27T18:11:06;10.40;99.90
11838;DHT22;5978;51.020;6.764;2022-09-27T18:13:32;10.40;99.90
11838;DHT22;5978;51.020;6.764;2022-09-27T18:16:05;10.30;99.90
11838;DHT22;5978;51.020;6.764;2022-09-27T18:18:33;10.20;99.90
11838;DHT22;5978;51.020;6.764;2022-09-27T18:23:32;10.20;99.90
11838;DHT22;5978;51.020;6.764;2022-09-27T18:25:58;10.30;99.90
11838;DHT22;5978;51.020;6.764;2022-09-27T18:28:28;10.30;99.90
11838;DHT22;5978;51.020;6.764;2022-09-27T18:31:01;10.20;99.90
11838;DHT22;5978;51.020;6.764;2022-09-27T18:33:28;10.10;99.90
11838;DHT22;5978;51.020;6.764;2022-09-27T18:35:53;10.10;99.90
11838;DHT22;5978;51.020;6.764;2022-09-27T18:38:19;10.00;99.90
11838;DHT22;5978;51.020;6.764;2022-09-27T18:40:44;10.10;99.90
11838;DHT22;5978;51.020;6.764;2022-09-27T18:43:10;10.10;99.90
11838;DHT22;5978;51.020;6.764;2022-09-27T18:45:36;10.00;99.90
11838;DHT22;5978;51.020;6.764;2022-09-27T18:48:04;10.10;99.90
11838;DHT22;5978;51.020;6.764;2022-09-27T18:50:34;10.10;99.90
11838;DHT22;5978;51.020;6.764;2022-09-27T18:53:00;10.10;99.90
11838;DHT22;5978;51.020;6.764;2022-09-27T18:55:26;10.00;99.90
11838;DHT22;5978;51.020;6.764;2022-09-27T18:57:52;10.10;99.90
11838;DHT22;5978;51.020;6.764;2022-09-27T19:00:18;10.10;99.90